West Springfield, Pennsylvania
Current Conditions -  °F | °C
As of 6:02 AM on Friday 28 Nov 2014 (Local Time) from KHZY Reporting Station
Light Snow Light Snow  
Wind Chill: 14°   Ceiling: 2600
Heat Index: 24°   Visibility: 3mi
Dew Point: 18°   Wind: 9mph
Humidity: 77%   Direction: 290°WNW
Pressure: 30.29"   Gusts: NA
Location:  41.95°N, 80.47°W
Report Text: KHZY 281102Z AUTO 29008KT 3SM -SN SCT020 OVC026 M04/M08 A3029 RMK AO2 P0000 T10441078
Loading
Personal Weather Stations






























Interactive Weather Map New forecast layout! Learn more

10-Day Weather Forecast

Advertisements
Track Severe Weather on mobile